Time;durP1;ratioP1;P1;durP2;ratioP2;P2;SDS_P1;SDS_P2;PMS_P1;PMS_P2;Temp;Humidity;BMP_temperature;BMP_pressure;BME280_temperature;BME280_humidity;BME280_pressure;Samples;Min_cycle;Max_cycle;Signal;HPM_P1;HPM_P2
2023/04/18 00:00:58;;;;;;;;;;;8.60;99.90;;;;;;4994410;28;19996;-67
2023/04/18 00:03:23;;;;;;;;;;;8.50;99.90;;;;;;4994960;28;20306;-66
2023/04/18 00:05:49;;;;;;;;;;;8.50;99.90;;;;;;4988593;28;19914;-68
2023/04/18 00:08:14;;;;;;;;;;;8.50;99.90;;;;;;4991224;28;19925;-68
2023/04/18 00:10:40;;;;;;;;;;;8.40;99.90;;;;;;4975094;28;20005;-68
2023/04/18 00:13:06;;;;;;;;;;;8.40;99.90;;;;;;4975216;28;19911;-67
2023/04/18 00:15:33;;;;;;;;;;;8.40;99.90;;;;;;4982746;28;19937;-67
2023/04/18 00:17:59;;;;;;;;;;;8.40;99.90;;;;;;4995391;28;19909;-66
2023/04/18 00:20:25;;;;;;;;;;;8.40;99.90;;;;;;4993401;28;19925;-66
2023/04/18 00:22:52;;;;;;;;;;;8.40;99.90;;;;;;4997063;28;20008;-67
2023/04/18 00:25:17;;;;;;;;;;;8.30;99.90;;;;;;4997864;28;19910;-68
2023/04/18 00:27:43;;;;;;;;;;;8.40;99.90;;;;;;4995461;28;19964;-66
2023/04/18 00:30:08;;;;;;;;;;;8.30;99.90;;;;;;4994592;28;19918;-66
2023/04/18 00:32:34;;;;;;;;;;;8.30;99.90;;;;;;4994145;28;19910;-66
2023/04/18 00:34:59;;;;;;;;;;;8.30;99.90;;;;;;4994672;28;19917;-67
2023/04/18 00:37:25;;;;;;;;;;;8.20;99.90;;;;;;4994295;28;19910;-66
2023/04/18 00:39:52;;;;;;;;;;;8.30;99.90;;;;;;4993096;28;19921;-66
2023/04/18 00:42:19;;;;;;;;;;;8.30;99.90;;;;;;4993652;28;19945;-68
2023/04/18 00:44:44;;;;;;;;;;;8.30;99.90;;;;;;4991728;28;19960;-66
2023/04/18 00:47:10;;;;;;;;;;;8.20;99.90;;;;;;4973354;28;19914;-67
2023/04/18 00:49:35;;;;;;;;;;;8.20;99.90;;;;;;4975106;28;19917;-67
2023/04/18 00:52:01;;;;;;;;;;;8.20;99.90;;;;;;4975309;28;19984;-67
2023/04/18 00:54:26;;;;;;;;;;;8.10;99.90;;;;;;4975538;28;19910;-68
2023/04/18 00:56:52;;;;;;;;;;;8.10;99.90;;;;;;4975448;28;19910;-67
2023/04/18 00:59:17;;;;;;;;;;;8.20;99.90;;;;;;4975282;28;19917;-67
2023/04/18 01:01:43;;;;;;;;;;;8.20;99.90;;;;;;4975413;28;19914;-67
2023/04/18 01:04:09;;;;;;;;;;;8.10;99.90;;;;;;4975882;28;19917;-67
2023/04/18 01:06:35;;;;;;;;;;;8.10;99.90;;;;;;4975102;28;19911;-67
2023/04/18 01:09:01;;;;;;;;;;;8.00;99.90;;;;;;4976141;28;19981;-68
2023/04/18 01:11:26;;;;;;;;;;;8.00;99.90;;;;;;4978389;28;19949;-67
2023/04/18 01:14:02;;;;;;;;;;;8.00;99.90;;;;;;4978590;28;19910;-66
2023/04/18 01:16:28;;;;;;;;;;;8.00;99.90;;;;;;4992440;28;20039;-67
2023/04/18 01:18:53;;;;;;;;;;;8.00;99.90;;;;;;4997723;28;19917;-67
2023/04/18 01:21:20;;;;;;;;;;;8.00;99.90;;;;;;4996707;28;20290;-68
2023/04/18 01:23:47;;;;;;;;;;;8.00;99.90;;;;;;4996652;28;19960;-69
2023/04/18 01:26:12;;;;;;;;;;;8.00;99.90;;;;;;4998419;28;19910;-66
2023/04/18 01:28:38;;;;;;;;;;;8.10;99.90;;;;;;4999294;28;20381;-67
2023/04/18 01:31:03;;;;;;;;;;;8.10;99.90;;;;;;4998888;28;19914;-67
2023/04/18 01:33:29;;;;;;;;;;;8.10;99.90;;;;;;4999272;28;19914;-67
2023/04/18 01:35:54;;;;;;;;;;;8.10;99.90;;;;;;4998505;28;19964;-67
2023/04/18 01:38:20;;;;;;;;;;;8.20;99.90;;;;;;4998747;28;19910;-67
2023/04/18 01:40:46;;;;;;;;;;;8.20;99.90;;;;;;4998923;28;19910;-66
2023/04/18 01:43:11;;;;;;;;;;;8.30;99.90;;;;;;4998983;28;20361;-67
2023/04/18 01:45:37;;;;;;;;;;;8.30;99.90;;;;;;4990773;28;19918;-67
2023/04/18 01:48:02;;;;;;;;;;;8.30;99.90;;;;;;4978798;28;19910;-67
2023/04/18 01:50:28;;;;;;;;;;;8.30;99.90;;;;;;4978793;28;19934;-66
2023/04/18 01:52:53;;;;;;;;;;;8.30;99.90;;;;;;4978380;28;19917;-67
2023/04/18 01:55:19;;;;;;;;;;;8.40;99.90;;;;;;4978234;28;19981;-67
2023/04/18 01:57:44;;;;;;;;;;;8.40;99.90;;;;;;4977620;28;19914;-66
2023/04/18 02:00:10;;;;;;;;;;;8.40;99.90;;;;;;4977837;28;19917;-66
2023/04/18 02:02:35;;;;;;;;;;;8.40;99.90;;;;;;4977835;28;19997;-66
2023/04/18 02:05:01;;;;;;;;;;;8.40;99.90;;;;;;4977950;28;19914;-66
2023/04/18 02:07:26;;;;;;;;;;;8.40;99.90;;;;;;4979012;28;19910;-66
2023/04/18 02:09:52;;;;;;;;;;;8.40;99.90;;;;;;4979753;28;19965;-66
2023/04/18 02:12:17;;;;;;;;;;;8.50;99.90;;;;;;4978229;28;20279;-67
2023/04/18 02:14:43;;;;;;;;;;;8.40;99.90;;;;;;4978841;28;19911;-67
2023/04/18 02:17:08;;;;;;;;;;;8.30;99.90;;;;;;4995480;28;19959;-67
2023/04/18 02:19:33;;;;;;;;;;;8.30;99.90;;;;;;4996194;28;19949;-67
2023/04/18 02:21:59;;;;;;;;;;;8.20;99.90;;;;;;4995802;28;19910;-67
2023/04/18 02:24:24;;;;;;;;;;;8.20;99.90;;;;;;4997084;28;19910;-67
2023/04/18 02:26:50;;;;;;;;;;;8.20;99.90;;;;;;4996818;28;19916;-66
2023/04/18 02:29:15;;;;;;;;;;;8.20;99.90;;;;;;4996415;28;19910;-66
2023/04/18 02:31:41;;;;;;;;;;;8.20;99.90;;;;;;4996638;28;19972;-66
2023/04/18 02:34:07;;;;;;;;;;;8.30;99.90;;;;;;4996619;28;19910;-66
2023/04/18 02:36:32;;;;;;;;;;;8.20;99.90;;;;;;4996274;28;19910;-66
2023/04/18 02:38:58;;;;;;;;;;;8.20;99.90;;;;;;4996239;28;19968;-66
2023/04/18 02:41:23;;;;;;;;;;;8.20;99.90;;;;;;4996434;28;19960;-66
2023/04/18 02:43:49;;;;;;;;;;;8.30;99.90;;;;;;5001043;28;19917;-67
2023/04/18 02:46:15;;;;;;;;;;;8.30;99.90;;;;;;5012800;23;19926;-71
2023/04/18 02:48:40;;;;;;;;;;;8.30;99.90;;;;;;5014160;28;19963;-70
2023/04/18 02:51:06;;;;;;;;;;;8.30;99.90;;;;;;5015380;28;19917;-70
2023/04/18 02:53:32;;;;;;;;;;;8.30;99.90;;;;;;5014745;28;19913;-70
2023/04/18 02:55:58;;;;;;;;;;;8.40;99.90;;;;;;5015496;28;20403;-70
2023/04/18 02:58:23;;;;;;;;;;;8.40;99.90;;;;;;5015533;28;20332;-71
2023/04/18 03:00:51;;;;;;;;;;;8.40;99.90;;;;;;5014345;28;19909;-70
2023/04/18 03:03:16;;;;;;;;;;;8.40;99.90;;;;;;5002313;28;19914;-70
2023/04/18 03:05:42;;;;;;;;;;;8.40;99.90;;;;;;4994877;28;19910;-70
2023/04/18 03:08:07;;;;;;;;;;;8.40;99.90;;;;;;4995726;28;20330;-70
2023/04/18 03:10:33;;;;;;;;;;;8.40;99.90;;;;;;4994306;28;19936;-71
2023/04/18 03:12:58;;;;;;;;;;;8.40;99.90;;;;;;4998295;28;19949;-71
2023/04/18 03:15:24;;;;;;;;;;;8.40;99.90;;;;;;5000632;28;19910;-71
2023/04/18 03:17:50;;;;;;;;;;;8.40;99.90;;;;;;5000371;28;20282;-70
2023/04/18 03:20:16;;;;;;;;;;;8.40;99.90;;;;;;4994297;28;19964;-70
2023/04/18 03:22:41;;;;;;;;;;;8.40;99.90;;;;;;4995323;28;19910;-70
2023/04/18 03:25:07;;;;;;;;;;;8.40;99.90;;;;;;4993843;28;19917;-70
2023/04/18 03:27:33;;;;;;;;;;;8.40;99.90;;;;;;4993925;28;19953;-70
2023/04/18 03:29:58;;;;;;;;;;;8.40;99.90;;;;;;4993942;28;19923;-69
2023/04/18 03:32:23;;;;;;;;;;;8.40;99.90;;;;;;4994094;28;19910;-70
2023/04/18 03:34:49;;;;;;;;;;;8.50;99.90;;;;;;4995194;28;19916;-70
2023/04/18 03:37:15;;;;;;;;;;;8.50;99.90;;;;;;4993704;28;19909;-70
2023/04/18 03:39:40;;;;;;;;;;;8.50;99.90;;;;;;4994270;28;19910;-70
2023/04/18 03:42:06;;;;;;;;;;;8.40;99.90;;;;;;4995185;28;20398;-70
2023/04/18 03:44:31;;;;;;;;;;;8.40;99.90;;;;;;4994864;28;20025;-69
2023/04/18 03:46:57;;;;;;;;;;;8.40;99.90;;;;;;4994638;28;19918;-70
2023/04/18 03:49:22;;;;;;;;;;;8.50;99.90;;;;;;4994749;28;20417;-70
2023/04/18 03:51:48;;;;;;;;;;;8.50;99.90;;;;;;4994967;28;19914;-71
2023/04/18 03:54:14;;;;;;;;;;;8.50;99.90;;;;;;4994796;28;20366;-70
2023/04/18 03:56:39;;;;;;;;;;;8.40;99.90;;;;;;4994722;28;20274;-70
2023/04/18 03:59:05;;;;;;;;;;;8.40;99.90;;;;;;4993747;28;19916;-70
2023/04/18 04:01:30;;;;;;;;;;;8.40;99.90;;;;;;4993458;28;20350;-70
2023/04/18 04:03:56;;;;;;;;;;;8.50;99.90;;;;;;4993380;28;19976;-69
2023/04/18 04:06:21;;;;;;;;;;;8.40;99.90;;;;;;4994473;28;19914;-70
2023/04/18 04:08:47;;;;;;;;;;;8.40;99.90;;;;;;4994502;28;19910;-70
2023/04/18 04:11:12;;;;;;;;;;;8.40;99.90;;;;;;4994665;28;19917;-71
2023/04/18 04:13:38;;;;;;;;;;;8.40;99.90;;;;;;4994623;28;20371;-69
2023/04/18 04:16:03;;;;;;;;;;;8.40;99.90;;;;;;4993274;28;20326;-71
2023/04/18 04:18:30;;;;;;;;;;;8.40;99.90;;;;;;5011001;28;19910;-71
2023/04/18 04:20:58;;;;;;;;;;;8.40;99.90;;;;;;5013296;28;20263;-71
2023/04/18 04:23:25;;;;;;;;;;;8.40;99.90;;;;;;5013196;28;19910;-71
2023/04/18 04:25:54;;;;;;;;;;;8.30;99.90;;;;;;5014071;28;19916;-71
2023/04/18 04:28:23;;;;;;;;;;;8.30;99.90;;;;;;5012765;28;19910;-71
2023/04/18 04:30:49;;;;;;;;;;;8.30;99.90;;;;;;5004431;28;19925;-71
2023/04/18 04:33:18;;;;;;;;;;;8.30;99.90;;;;;;4994652;28;20409;-71
2023/04/18 04:35:45;;;;;;;;;;;8.40;99.90;;;;;;4994792;28;19916;-70
2023/04/18 04:38:11;;;;;;;;;;;8.40;99.90;;;;;;4996490;28;20267;-71
2023/04/18 04:40:37;;;;;;;;;;;8.40;99.90;;;;;;4996715;28;19934;-70
2023/04/18 04:43:04;;;;;;;;;;;8.40;99.90;;;;;;4990887;28;19918;-72
2023/04/18 04:45:30;;;;;;;;;;;8.30;99.90;;;;;;4978682;28;20005;-70
2023/04/18 04:47:55;;;;;;;;;;;8.30;99.90;;;;;;4996905;28;20376;-71
2023/04/18 04:50:20;;;;;;;;;;;8.20;99.90;;;;;;4996968;28;19937;-71
2023/04/18 04:52:46;;;;;;;;;;;8.30;99.90;;;;;;4998982;28;20263;-72
2023/04/18 04:55:11;;;;;;;;;;;8.30;99.90;;;;;;5002592;28;19975;-70
2023/04/18 04:57:37;;;;;;;;;;;8.30;99.90;;;;;;5010279;28;20036;-71
2023/04/18 05:00:04;;;;;;;;;;;8.20;99.90;;;;;;4997555;28;20385;-70
2023/04/18 05:02:29;;;;;;;;;;;8.20;99.90;;;;;;4985990;28;20005;-70
2023/04/18 05:04:55;;;;;;;;;;;8.30;99.90;;;;;;4994865;28;20020;-71
2023/04/18 05:07:20;;;;;;;;;;;8.30;99.90;;;;;;4978624;28;19917;-71
2023/04/18 05:09:46;;;;;;;;;;;8.30;99.90;;;;;;4982371;28;20016;-71
2023/04/18 05:12:11;;;;;;;;;;;8.20;99.90;;;;;;4979979;28;19926;-70
2023/04/18 05:14:37;;;;;;;;;;;8.20;99.90;;;;;;4996747;28;20004;-69
2023/04/18 05:17:02;;;;;;;;;;;8.20;99.90;;;;;;4997963;28;19938;-69
2023/04/18 05:19:28;;;;;;;;;;;8.20;99.90;;;;;;5001895;28;19914;-68
2023/04/18 05:21:54;;;;;;;;;;;8.30;99.90;;;;;;5000028;28;20389;-69
2023/04/18 05:24:19;;;;;;;;;;;8.20;99.90;;;;;;5000107;28;19910;-69
2023/04/18 05:26:44;;;;;;;;;;;8.20;99.90;;;;;;4998621;28;20290;-70
2023/04/18 05:29:10;;;;;;;;;;;8.20;99.90;;;;;;4996606;28;19910;-69
2023/04/18 05:31:35;;;;;;;;;;;8.20;99.90;;;;;;4997438;28;19957;-69
2023/04/18 05:34:01;;;;;;;;;;;8.20;99.90;;;;;;4995998;28;19910;-69
2023/04/18 05:36:27;;;;;;;;;;;8.20;99.90;;;;;;4996105;28;19917;-65
2023/04/18 05:38:52;;;;;;;;;;;8.30;99.90;;;;;;4997457;28;19968;-66
2023/04/18 05:41:18;;;;;;;;;;;8.30;99.90;;;;;;4997024;28;19910;-65
2023/04/18 05:43:43;;;;;;;;;;;8.30;99.90;;;;;;4997452;28;19960;-67
2023/04/18 05:46:09;;;;;;;;;;;8.30;99.90;;;;;;4997020;28;19922;-72
2023/04/18 05:48:35;;;;;;;;;;;8.30;99.90;;;;;;4996976;28;20383;-67
2023/04/18 05:51:00;;;;;;;;;;;8.20;99.90;;;;;;4997397;28;19920;-67
2023/04/18 05:53:26;;;;;;;;;;;8.20;99.90;;;;;;4996981;28;19917;-66
2023/04/18 05:55:51;;;;;;;;;;;8.20;99.90;;;;;;4996324;28;19910;-67
2023/04/18 05:58:17;;;;;;;;;;;8.30;99.90;;;;;;4995834;28;19917;-67
2023/04/18 06:00:42;;;;;;;;;;;8.20;99.90;;;;;;4995426;28;19925;-66
2023/04/18 06:03:08;;;;;;;;;;;8.20;99.90;;;;;;4996533;28;20003;-66
2023/04/18 06:05:33;;;;;;;;;;;8.20;99.90;;;;;;4997085;28;20072;-67
2023/04/18 06:07:58;;;;;;;;;;;8.10;99.90;;;;;;4996583;28;19910;-67
2023/04/18 06:10:24;;;;;;;;;;;8.10;99.90;;;;;;4996553;28;19949;-70
2023/04/18 06:12:50;;;;;;;;;;;8.10;99.90;;;;;;4995215;28;19960;-69
2023/04/18 06:15:15;;;;;;;;;;;8.20;99.90;;;;;;4995924;28;19964;-70
2023/04/18 06:17:41;;;;;;;;;;;8.20;99.90;;;;;;4996474;28;19910;-69
2023/04/18 06:20:06;;;;;;;;;;;8.30;99.90;;;;;;4996466;28;20437;-70
2023/04/18 06:22:35;;;;;;;;;;;8.20;99.90;;;;;;4996705;28;20488;-70
2023/04/18 06:25:00;;;;;;;;;;;8.30;99.90;;;;;;4995354;28;19918;-71
2023/04/18 06:27:26;;;;;;;;;;;8.40;99.90;;;;;;4996859;28;20001;-69
2023/04/18 06:29:52;;;;;;;;;;;8.40;99.90;;;;;;4995633;28;19910;-70
2023/04/18 06:32:17;;;;;;;;;;;8.50;99.90;;;;;;4994502;28;20290;-69
2023/04/18 06:34:43;;;;;;;;;;;8.60;99.90;;;;;;4994873;28;19964;-69
2023/04/18 06:37:09;;;;;;;;;;;8.50;99.90;;;;;;4996223;28;19910;-70
2023/04/18 06:39:35;;;;;;;;;;;8.50;99.90;;;;;;4994715;28;19917;-69
2023/04/18 06:42:01;;;;;;;;;;;8.50;99.90;;;;;;4995946;28;19910;-70
2023/04/18 06:44:26;;;;;;;;;;;8.60;99.90;;;;;;4996285;28;19937;-70
2023/04/18 06:46:52;;;;;;;;;;;8.70;99.90;;;;;;4994442;28;19925;-70
2023/04/18 06:49:17;;;;;;;;;;;8.70;99.90;;;;;;4994544;28;20381;-70
2023/04/18 06:51:43;;;;;;;;;;;8.70;99.90;;;;;;4995864;28;19913;-70
2023/04/18 06:54:08;;;;;;;;;;;8.80;99.90;;;;;;4994627;28;20008;-70
2023/04/18 06:56:34;;;;;;;;;;;8.70;99.90;;;;;;4994424;28;19917;-70
2023/04/18 06:58:59;;;;;;;;;;;8.70;99.90;;;;;;4994470;28;19910;-70
2023/04/18 07:01:25;;;;;;;;;;;8.70;99.90;;;;;;4996387;28;19910;-70
2023/04/18 07:03:50;;;;;;;;;;;8.70;99.90;;;;;;4997152;28;19913;-70
2023/04/18 07:06:16;;;;;;;;;;;8.70;99.90;;;;;;4995861;28;19999;-70
2023/04/18 07:08:41;;;;;;;;;;;8.70;99.90;;;;;;4995532;28;19910;-70
2023/04/18 07:11:07;;;;;;;;;;;8.70;99.90;;;;;;4994252;28;19972;-70
2023/04/18 07:13:32;;;;;;;;;;;8.70;99.90;;;;;;4995525;28;19968;-69
2023/04/18 07:15:58;;;;;;;;;;;8.70;99.90;;;;;;4995789;28;19924;-69
2023/04/18 07:18:23;;;;;;;;;;;8.80;99.90;;;;;;4995221;28;19960;-69
2023/04/18 07:20:49;;;;;;;;;;;8.90;99.90;;;;;;4995645;28;19914;-70
2023/04/18 07:23:14;;;;;;;;;;;8.90;99.90;;;;;;4995155;28;20000;-70
2023/04/18 07:25:40;;;;;;;;;;;9.10;99.90;;;;;;4993926;28;19942;-69
2023/04/18 07:28:05;;;;;;;;;;;9.30;99.90;;;;;;4994530;28;19910;-69
2023/04/18 07:30:31;;;;;;;;;;;9.50;99.90;;;;;;4994098;28;20060;-69
2023/04/18 07:32:56;;;;;;;;;;;9.70;99.90;;;;;;4996320;28;19916;-70
2023/04/18 07:35:22;;;;;;;;;;;9.70;99.90;;;;;;4996571;28;19914;-69
2023/04/18 07:37:47;;;;;;;;;;;9.70;99.90;;;;;;4995610;28;19960;-68
2023/04/18 07:40:13;;;;;;;;;;;9.60;99.90;;;;;;4995413;28;19921;-69
2023/04/18 07:42:38;;;;;;;;;;;9.60;99.90;;;;;;4996829;28;19910;-69
2023/04/18 07:45:04;;;;;;;;;;;9.60;99.90;;;;;;4998198;28;19941;-70
2023/04/18 07:47:29;;;;;;;;;;;9.60;99.90;;;;;;5000869;28;20343;-70
2023/04/18 07:49:55;;;;;;;;;;;9.50;99.90;;;;;;5000948;28;19976;-70
2023/04/18 07:52:21;;;;;;;;;;;9.60;99.90;;;;;;4998739;28;19909;-72
2023/04/18 07:54:46;;;;;;;;;;;9.60;99.90;;;;;;4997014;28;19909;-71
2023/04/18 07:57:12;;;;;;;;;;;9.70;99.90;;;;;;4997513;28;19910;-70
2023/04/18 07:59:37;;;;;;;;;;;9.80;99.90;;;;;;4995249;28;19933;-70
2023/04/18 08:02:02;;;;;;;;;;;10.00;99.90;;;;;;4993566;28;20382;-69
2023/04/18 08:04:28;;;;;;;;;;;10.20;99.90;;;;;;4993301;28;20337;-69
2023/04/18 08:06:53;;;;;;;;;;;10.20;99.90;;;;;;4994616;28;19914;-69
2023/04/18 08:09:20;;;;;;;;;;;10.30;99.90;;;;;;4993364;28;20012;-69
2023/04/18 08:11:46;;;;;;;;;;;10.30;99.90;;;;;;4994570;28;19914;-69
2023/04/18 08:14:11;;;;;;;;;;;10.20;99.90;;;;;;4993103;28;19910;-68
2023/04/18 08:16:37;;;;;;;;;;;10.20;99.90;;;;;;4993305;28;20371;-69
2023/04/18 08:19:02;;;;;;;;;;;10.30;99.90;;;;;;4993574;28;19949;-69
2023/04/18 08:21:28;;;;;;;;;;;10.30;99.90;;;;;;4994381;28;19917;-70
2023/04/18 08:23:53;;;;;;;;;;;10.30;99.90;;;;;;4994406;28;19996;-70
2023/04/18 08:26:19;;;;;;;;;;;10.30;99.90;;;;;;4994146;28;19910;-69
2023/04/18 08:28:45;;;;;;;;;;;10.40;99.90;;;;;;4993076;28;19910;-68
2023/04/18 08:31:11;;;;;;;;;;;10.40;99.90;;;;;;4994701;28;19920;-69
2023/04/18 08:33:36;;;;;;;;;;;10.50;99.90;;;;;;4994142;28;20362;-70
2023/04/18 08:36:02;;;;;;;;;;;10.30;99.90;;;;;;4994893;28;19920;-70
2023/04/18 08:38:27;;;;;;;;;;;10.10;99.90;;;;;;4995636;28;19913;-69
2023/04/18 08:40:53;;;;;;;;;;;10.10;99.90;;;;;;4994657;28;19909;-69
2023/04/18 08:43:18;;;;;;;;;;;10.10;99.90;;;;;;4994482;28;20335;-69
2023/04/18 08:45:44;;;;;;;;;;;10.30;99.90;;;;;;4995708;28;19918;-69
2023/04/18 08:48:11;;;;;;;;;;;10.40;99.90;;;;;;5002341;28;19988;-71
2023/04/18 08:50:37;;;;;;;;;;;10.40;99.90;;;;;;5004591;28;20017;-70
2023/04/18 08:53:02;;;;;;;;;;;10.40;99.90;;;;;;5005133;28;20259;-69
2023/04/18 08:55:28;;;;;;;;;;;10.40;99.90;;;;;;5002530;28;19913;-69
2023/04/18 08:57:54;;;;;;;;;;;10.40;99.90;;;;;;5001600;28;19933;-69
2023/04/18 09:00:19;;;;;;;;;;;10.50;99.90;;;;;;4994759;28;19917;-69
2023/04/18 09:02:45;;;;;;;;;;;10.50;99.90;;;;;;4995270;28;20013;-69
2023/04/18 09:05:17;;;;;;;;;;;10.60;99.90;;;;;;4998158;28;20287;-69
2023/04/18 09:07:43;;;;;;;;;;;10.70;99.90;;;;;;4993424;28;19914;-72
2023/04/18 09:10:09;;;;;;;;;;;10.80;99.90;;;;;;4992611;28;19917;-72
2023/04/18 09:12:41;;;;;;;;;;;10.90;99.90;;;;;;4993923;28;20278;-72
2023/04/18 09:15:12;;;;;;;;;;;11.10;99.90;;;;;;4993850;28;19910;-72
2023/04/18 09:17:42;;;;;;;;;;;11.50;99.90;;;;;;4992246;28;19917;-72
2023/04/18 09:20:11;;;;;;;;;;;12.00;99.90;;;;;;4993918;28;19917;-72
2023/04/18 09:22:50;;;;;;;;;;;12.20;99.90;;;;;;4994174;28;19909;-72
2023/04/18 09:25:24;;;;;;;;;;;12.40;99.90;;;;;;4992378;28;19910;-72
2023/04/18 09:27:50;;;;;;;;;;;13.30;99.90;;;;;;4992548;28;19909;-72
2023/04/18 09:30:27;;;;;;;;;;;14.10;99.90;;;;;;4995331;28;20048;-72
2023/04/18 09:32:56;;;;;;;;;;;14.40;99.90;;;;;;4996135;28;19941;-71
2023/04/18 09:35:23;;;;;;;;;;;14.30;99.90;;;;;;4997544;28;19910;-72
2023/04/18 09:37:50;;;;;;;;;;;13.80;99.90;;;;;;4996993;28;19910;-72
2023/04/18 09:40:17;;;;;;;;;;;13.40;99.90;;;;;;4997644;28;19910;-72
2023/04/18 09:42:42;;;;;;;;;;;13.00;99.90;;;;;;4997998;28;19957;-73
2023/04/18 09:45:08;;;;;;;;;;;13.00;99.90;;;;;;4996218;28;19917;-73
2023/04/18 09:47:34;;;;;;;;;;;12.80;99.90;;;;;;4997390;28;19918;-72
2023/04/18 09:50:00;;;;;;;;;;;12.80;99.90;;;;;;4995844;28;19952;-72
2023/04/18 09:52:30;;;;;;;;;;;12.70;99.90;;;;;;4997179;28;19916;-72
2023/04/18 09:54:58;;;;;;;;;;;12.80;99.90;;;;;;4998365;28;19960;-72
2023/04/18 09:57:25;;;;;;;;;;;12.60;99.90;;;;;;4998008;28;19964;-72
2023/04/18 09:59:58;;;;;;;;;;;12.30;99.90;;;;;;4995687;28;19917;-72
2023/04/18 10:02:24;;;;;;;;;;;12.10;99.90;;;;;;4997279;28;19913;-72
2023/04/18 10:04:50;;;;;;;;;;;11.90;99.90;;;;;;4997453;28;19909;-72
2023/04/18 10:07:16;;;;;;;;;;;11.80;99.90;;;;;;4996620;28;19916;-72
2023/04/18 10:09:52;;;;;;;;;;;11.90;99.90;;;;;;4996013;28;19996;-73
2023/04/18 10:12:18;;;;;;;;;;;11.90;99.90;;;;;;4997922;28;19968;-71
2023/04/18 10:14:44;;;;;;;;;;;11.90;99.90;;;;;;4996706;28;19941;-72
2023/04/18 10:17:10;;;;;;;;;;;11.90;99.90;;;;;;4995168;28;20008;-72
2023/04/18 10:19:37;;;;;;;;;;;11.80;99.90;;;;;;4995078;28;19992;-73
2023/04/18 10:22:02;;;;;;;;;;;11.80;99.90;;;;;;4996797;28;19916;-73
2023/04/18 10:24:49;;;;;;;;;;;11.80;99.90;;;;;;4995657;28;19914;-72
2023/04/18 10:27:15;;;;;;;;;;;11.80;99.90;;;;;;4996759;28;20290;-71
2023/04/18 10:29:53;;;;;;;;;;;11.80;99.90;;;;;;4995080;28;19910;-72
2023/04/18 10:32:20;;;;;;;;;;;11.90;99.90;;;;;;4996730;28;19957;-72
2023/04/18 10:34:46;;;;;;;;;;;12.10;99.90;;;;;;4995325;28;20323;-72
2023/04/18 10:37:12;;;;;;;;;;;12.20;99.90;;;;;;4998290;28;19917;-72
2023/04/18 10:39:46;;;;;;;;;;;12.40;99.90;;;;;;4998617;28;19909;-71
2023/04/18 10:42:12;;;;;;;;;;;12.60;99.90;;;;;;4997254;28;20373;-72
2023/04/18 10:44:37;;;;;;;;;;;12.80;99.90;;;;;;5000963;28;20022;-72
2023/04/18 10:47:06;;;;;;;;;;;12.80;99.90;;;;;;4999372;28;19921;-72
2023/04/18 10:49:31;;;;;;;;;;;12.80;99.90;;;;;;5000763;28;19916;-72
2023/04/18 10:51:58;;;;;;;;;;;13.10;99.90;;;;;;4999809;28;19914;-71
2023/04/18 10:54:34;;;;;;;;;;;13.30;99.90;;;;;;4997703;28;19956;-71
2023/04/18 10:57:01;;;;;;;;;;;13.30;99.90;;;;;;4997628;28;20004;-73
2023/04/18 10:59:28;;;;;;;;;;;13.40;99.90;;;;;;4995264;28;20342;-72
2023/04/18 11:01:55;;;;;;;;;;;13.30;99.90;;;;;;4995181;28;19914;-72
2023/04/18 11:04:21;;;;;;;;;;;13.10;99.90;;;;;;4994367;28;20010;-72
2023/04/18 11:06:53;;;;;;;;;;;13.20;99.90;;;;;;4996286;28;19949;-71
2023/04/18 11:09:19;;;;;;;;;;;13.20;99.90;;;;;;4994709;28;19932;-73
2023/04/18 11:11:44;;;;;;;;;;;13.20;99.90;;;;;;4994605;28;20371;-72
2023/04/18 11:14:10;;;;;;;;;;;13.20;99.90;;;;;;4994701;28;19910;-73
2023/04/18 11:16:35;;;;;;;;;;;13.20;99.90;;;;;;4994414;28;20000;-73
2023/04/18 11:19:18;;;;;;;;;;;13.20;99.90;;;;;;4994546;28;19910;-73
2023/04/18 11:21:44;;;;;;;;;;;13.20;99.90;;;;;;4996500;28;19937;-73
2023/04/18 11:24:09;;;;;;;;;;;13.30;99.90;;;;;;4996002;28;19910;-71
2023/04/18 11:26:36;;;;;;;;;;;13.40;99.90;;;;;;4995566;28;20275;-72
2023/04/18 11:29:03;;;;;;;;;;;13.50;99.90;;;;;;4995763;28;19910;-72
2023/04/18 11:31:29;;;;;;;;;;;13.70;99.90;;;;;;4994162;28;20374;-73
2023/04/18 11:33:55;;;;;;;;;;;13.80;99.90;;;;;;4994365;28;19910;-73
2023/04/18 11:36:20;;;;;;;;;;;13.90;99.90;;;;;;4989962;28;19961;-72
2023/04/18 11:38:46;;;;;;;;;;;14.20;99.90;;;;;;4995013;28;19996;-73
2023/04/18 11:41:13;;;;;;;;;;;14.40;99.90;;;;;;4995829;28;19910;-71
2023/04/18 11:43:41;;;;;;;;;;;14.70;99.90;;;;;;4995906;28;19910;-72
2023/04/18 11:46:06;;;;;;;;;;;14.80;99.90;;;;;;4987519;28;19969;-72
2023/04/18 11:48:35;;;;;;;;;;;14.60;99.90;;;;;;4994143;28;19971;-70
2023/04/18 11:51:01;;;;;;;;;;;14.40;99.90;;;;;;4993737;28;19942;-69
2023/04/18 11:53:36;;;;;;;;;;;14.10;99.90;;;;;;4994800;28;20470;-72
2023/04/18 11:56:02;;;;;;;;;;;14.10;99.90;;;;;;4995360;28;19926;-72
2023/04/18 11:58:35;;;;;;;;;;;14.00;99.90;;;;;;4995981;28;19910;-71
2023/04/18 12:01:23;;;;;;;;;;;13.80;99.90;;;;;;4995561;28;19933;-71
2023/04/18 12:04:05;;;;;;;;;;;13.80;99.90;;;;;;4994853;28;20375;-71
2023/04/18 12:06:50;;;;;;;;;;;13.70;99.90;;;;;;4994575;28;19917;-69
2023/04/18 12:09:16;;;;;;;;;;;13.80;99.90;;;;;;4993390;28;19910;-68
2023/04/18 12:11:43;;;;;;;;;;;13.80;99.90;;;;;;4994354;28;21576;-68
2023/04/18 12:14:18;;;;;;;;;;;13.80;99.90;;;;;;4994776;28;19909;-73
2023/04/18 12:16:43;;;;;;;;;;;13.70;99.90;;;;;;4993373;28;20316;-72
2023/04/18 12:19:10;;;;;;;;;;;13.90;99.90;;;;;;4994449;28;19910;-72
2023/04/18 12:21:35;;;;;;;;;;;14.10;99.90;;;;;;4993646;28;19948;-73
2023/04/18 12:24:14;;;;;;;;;;;14.10;99.90;;;;;;4995028;28;19909;-73
2023/04/18 12:26:44;;;;;;;;;;;14.30;99.90;;;;;;4994876;28;19964;-70
2023/04/18 12:29:10;;;;;;;;;;;14.40;99.90;;;;;;4994494;28;19910;-70
2023/04/18 12:31:35;;;;;;;;;;;14.50;99.90;;;;;;4993816;28;19964;-69
2023/04/18 12:34:01;;;;;;;;;;;14.30;99.90;;;;;;4993267;28;19917;-68
2023/04/18 12:36:27;;;;;;;;;;;14.30;99.90;;;;;;4993025;28;20032;-71
2023/04/18 12:38:53;;;;;;;;;;;14.40;99.90;;;;;;4995636;28;19913;-70
2023/04/18 12:41:18;;;;;;;;;;;14.40;99.90;;;;;;4993233;28;19910;-68
2023/04/18 12:43:43;;;;;;;;;;;14.40;99.90;;;;;;4993257;28;20013;-69
2023/04/18 12:46:09;;;;;;;;;;;14.40;99.90;;;;;;4993936;28;19940;-69
2023/04/18 12:48:35;;;;;;;;;;;14.30;99.90;;;;;;4994304;28;19945;-70
2023/04/18 12:51:00;;;;;;;;;;;14.20;99.90;;;;;;4994410;28;20367;-73
2023/04/18 12:53:26;;;;;;;;;;;14.10;99.90;;;;;;4994575;28;20429;-69
2023/04/18 12:55:51;;;;;;;;;;;14.10;99.90;;;;;;4993886;28;19997;-68
2023/04/18 12:58:17;;;;;;;;;;;14.20;99.90;;;;;;4989573;28;19965;-68
2023/04/18 13:00:42;;;;;;;;;;;14.50;99.90;;;;;;4974963;28;20394;-68
2023/04/18 13:03:08;;;;;;;;;;;14.50;99.90;;;;;;4973469;28;19997;-70
2023/04/18 13:05:34;;;;;;;;;;;14.60;99.90;;;;;;4978436;28;19914;-68
2023/04/18 13:08:00;;;;;;;;;;;14.50;99.90;;;;;;4978712;28;19961;-72
2023/04/18 13:10:25;;;;;;;;;;;14.50;99.90;;;;;;4979759;28;19921;-71
2023/04/18 13:12:51;;;;;;;;;;;14.70;99.90;;;;;;4984599;28;20502;-71
2023/04/18 13:15:17;;;;;;;;;;;15.00;99.90;;;;;;4979289;28;19910;-72
2023/04/18 13:17:43;;;;;;;;;;;15.20;99.90;;;;;;4990396;28;19920;-72
2023/04/18 13:20:11;;;;;;;;;;;15.30;99.90;;;;;;4996517;28;19945;-72
2023/04/18 13:22:37;;;;;;;;;;;15.40;99.90;;;;;;4997953;28;19910;-73
2023/04/18 13:25:02;;;;;;;;;;;15.30;99.90;;;;;;4998029;28;19910;-72
2023/04/18 13:27:28;;;;;;;;;;;15.20;99.90;;;;;;4997552;28;19925;-73
2023/04/18 13:29:54;;;;;;;;;;;15.20;99.90;;;;;;4997753;28;20021;-72
2023/04/18 13:32:19;;;;;;;;;;;15.30;99.90;;;;;;4998644;28;20338;-72
2023/04/18 13:34:45;;;;;;;;;;;15.50;99.90;;;;;;5002175;28;20367;-72
2023/04/18 13:37:11;;;;;;;;;;;15.40;99.90;;;;;;5002813;28;20379;-72
2023/04/18 13:39:37;;;;;;;;;;;15.50;99.90;;;;;;5001883;28;19910;-72
2023/04/18 13:42:03;;;;;;;;;;;15.30;99.90;;;;;;5000840;28;19917;-73
2023/04/18 13:44:32;;;;;;;;;;;15.30;99.90;;;;;;5010772;28;20294;-73
2023/04/18 13:46:59;;;;;;;;;;;15.10;99.90;;;;;;5008159;28;19918;-72
2023/04/18 13:49:24;;;;;;;;;;;15.10;99.90;;;;;;5020396;28;20349;-73
2023/04/18 13:51:52;;;;;;;;;;;15.20;99.90;;;;;;5016011;28;19920;-72
2023/04/18 13:54:18;;;;;;;;;;;15.20;99.90;;;;;;5017204;28;19916;-72
2023/04/18 13:56:43;;;;;;;;;;;15.20;99.90;;;;;;5017421;28;19914;-72
2023/04/18 13:59:09;;;;;;;;;;;15.40;99.90;;;;;;5016701;28;19917;-72
2023/04/18 14:01:34;;;;;;;;;;;15.60;99.90;;;;;;5015845;28;19910;-72
2023/04/18 14:04:01;;;;;;;;;;;15.80;99.90;;;;;;5016112;28;19960;-72
2023/04/18 14:06:26;;;;;;;;;;;15.80;99.90;;;;;;5017072;28;20286;-71
2023/04/18 14:08:52;;;;;;;;;;;15.80;99.90;;;;;;5017608;28;19916;-71
2023/04/18 14:11:18;;;;;;;;;;;15.90;99.90;;;;;;5016292;28;19913;-72
2023/04/18 14:13:44;;;;;;;;;;;15.90;99.90;;;;;;5018312;28;20382;-73
2023/04/18 14:16:09;;;;;;;;;;;15.90;99.90;;;;;;5015547;28;19914;-73
2023/04/18 14:18:34;;;;;;;;;;;15.80;99.90;;;;;;4998998;28;19924;-70